Immokalee, Florida
Current Conditions -  °F | °C
As of 9:15 AM on Monday 22 Dec 2014 (Local Time) from KIMM Reporting Station
Clear Clear  
Wind Chill: 75°   Ceiling: Unl
Heat Index: 75°   Visibility: 8mi
Dew Point: 75°   Wind: 9mph
Humidity: 100%   Direction: 160°SSE
Pressure: 30.05"   Gusts: NA
Location:  26.42°N, 81.42°W
Report Text: KIMM 221415Z AUTO 16008KT 8SM CLR 24/24 A3005 RMK A01 P000
Loading
Personal Weather Stations






























Interactive Weather Map New forecast layout! Learn more

10-Day Weather Forecast

Advertisements
Track Severe Weather on mobile